Time;durP1;ratioP1;P1;durP2;ratioP2;P2;SDS_P1;SDS_P2;PMS_P1;PMS_P2;Temp;Humidity;BMP_temperature;BMP_pressure;BME280_temperature;BME280_humidity;BME280_pressure;Samples;Min_cycle;Max_cycle;Signal;HPM_P1;HPM_P2
2022/07/17 00:01:35;;;;;;;3.70;1.90;;;;;;;-145.69;77.20;71919.78;5071733;28;20203;-77
2022/07/17 00:04:03;;;;;;;2.90;1.90;;;;;;;-145.69;76.93;71913.81;5075397;28;20206;-77
2022/07/17 00:06:29;;;;;;;3.63;1.97;;;;;;;-145.69;75.84;71895.91;5075606;28;20198;-77
2022/07/17 00:08:56;;;;;;;6.43;2.20;;;;;;;-145.69;77.30;71913.81;5075453;28;20207;-77
2022/07/17 00:11:22;;;;;;;2.67;2.10;;;;;;;-145.69;77.35;71925.75;5075327;28;20214;-77
2022/07/17 00:13:49;;;;;;;5.70;2.17;;;;;;;-145.69;77.89;71933.72;5075389;28;20203;-77
2022/07/17 00:16:15;;;;;;;3.70;2.30;;;;;;;-145.69;76.87;71919.78;5075158;28;20237;-77
2022/07/17 00:18:42;;;;;;;5.47;2.00;;;;;;;-145.69;78.50;71923.78;5074894;28;20206;-76
2022/07/17 00:21:09;;;;;;;5.50;2.47;;;;;;;-145.69;78.91;71923.78;5075293;28;20207;-77
2022/07/17 00:23:36;;;;;;;6.78;2.00;;;;;;;-145.69;78.21;71929.75;5075210;28;20322;-77
2022/07/17 00:26:02;;;;;;;3.97;2.13;;;;;;;-145.69;78.30;71933.72;5075024;28;20665;-76
2022/07/17 00:28:29;;;;;;;2.23;1.70;;;;;;;-145.69;78.54;71933.72;5075441;28;20222;-76
2022/07/17 00:30:55;;;;;;;6.90;1.97;;;;;;;-145.69;78.93;71947.66;5074859;28;20231;-77
2022/07/17 00:33:22;;;;;;;5.57;2.13;;;;;;;-145.69;79.45;71953.63;5075193;28;20202;-77
2022/07/17 00:35:48;;;;;;;4.10;2.13;;;;;;;-145.69;79.66;71955.63;5075023;28;20202;-77
2022/07/17 00:38:16;;;;;;;2.63;2.00;;;;;;;-145.69;80.04;71971.53;5075002;28;20224;-77
2022/07/17 00:40:43;;;;;;;5.70;2.10;;;;;;;-145.69;79.56;71955.63;5074898;28;20206;-77
2022/07/17 00:43:09;;;;;;;3.60;2.13;;;;;;;-145.69;79.60;71953.63;5073777;28;20451;-77
2022/07/17 00:45:36;;;;;;;4.70;2.10;;;;;;;-145.69;78.35;71955.63;5074372;28;20445;-77
2022/07/17 00:48:04;;;;;;;3.70;1.87;;;;;;;-145.69;80.43;71971.53;5074584;28;20665;-77
2022/07/17 00:50:33;;;;;;;3.60;1.93;;;;;;;-145.69;81.01;71969.53;5074155;28;20243;-77
2022/07/17 00:53:00;;;;;;;2.10;1.63;;;;;;;-145.69;81.18;71983.47;5074781;28;20199;-77
2022/07/17 00:55:29;;;;;;;5.90;2.30;;;;;;;-145.69;81.11;71999.41;5074548;28;20198;-77
2022/07/17 00:57:56;;;;;;;4.03;2.03;;;;;;;-145.69;85.73;72021.28;5074468;28;20237;-77
2022/07/17 01:00:23;;;;;;;4.53;2.13;;;;;;;-145.69;85.80;72039.19;5074321;28;20202;-77
2022/07/17 01:02:51;;;;;;;5.00;2.10;;;;;;;-145.69;85.99;72047.16;5074161;28;20191;-77
2022/07/17 01:05:19;;;;;;;4.83;2.20;;;;;;;-145.69;87.54;72047.16;5074485;28;20210;-77
2022/07/17 01:07:46;;;;;;;5.00;2.10;;;;;;;-145.69;88.55;72051.16;5074268;28;20207;-77
2022/07/17 01:10:14;;;;;;;5.57;2.13;;;;;;;-145.69;88.47;72043.19;5074135;28;20241;-76
2022/07/17 01:12:41;;;;;;;4.20;1.83;;;;;;;-145.69;87.92;72051.16;5074108;28;20202;-77
2022/07/17 01:15:09;;;;;;;2.73;1.83;;;;;;;-145.69;88.23;72045.16;5074248;28;20198;-77
2022/07/17 01:17:37;;;;;;;5.20;2.40;;;;;;;-145.69;89.17;72049.16;5074227;28;20203;-78
2022/07/17 01:20:05;;;;;;;3.70;2.33;;;;;;;-145.69;90.46;72061.09;5073852;28;20207;-78
2022/07/17 01:22:33;;;;;;;8.90;2.20;;;;;;;-145.69;89.53;72055.13;5073920;28;20191;-77
2022/07/17 01:25:01;;;;;;;4.10;2.00;;;;;;;-145.69;87.95;72043.19;5073801;28;20444;-77
2022/07/17 01:27:27;;;;;;;5.67;2.53;;;;;;;-145.69;90.79;72065.06;5073741;28;20692;-76
2022/07/17 01:29:57;;;;;;;5.13;2.47;;;;;;;-145.69;92.68;72084.97;5070262;28;20223;-76
2022/07/17 01:32:32;;;;;;;3.73;2.37;;;;;;;-145.69;92.57;72090.94;5058222;28;20206;-76
2022/07/17 01:34:58;;;;;;;5.20;2.37;;;;;;;-145.69;91.64;72090.94;5053860;28;20198;-76
2022/07/17 01:37:25;;;;;;;3.40;2.30;;;;;;;-145.69;92.76;72102.88;5053692;28;20200;-76
2022/07/17 01:39:55;;;;;;;5.80;2.40;;;;;;;-145.69;92.95;72096.91;5053494;28;20203;-76
2022/07/17 01:42:23;;;;;;;5.00;2.13;;;;;;;-145.69;94.52;72120.81;5053663;28;20685;-76
2022/07/17 01:44:50;;;;;;;3.30;2.17;;;;;;;-145.69;96.77;72122.78;5053281;28;20601;-76
2022/07/17 01:47:17;;;;;;;3.67;2.20;;;;;;;-145.69;98.50;72138.72;5053651;28;20226;-76
2022/07/17 01:49:45;;;;;;;3.73;2.37;;;;;;;-145.69;98.25;72144.69;5053175;28;20238;-76
2022/07/17 01:52:12;;;;;;;6.53;2.57;;;;;;;-145.69;96.95;72144.69;5071252;28;20233;-76
2022/07/17 01:54:39;;;;;;;6.20;2.47;;;;;;;-145.69;96.26;72140.69;5073565;28;20612;-76
2022/07/17 01:57:06;;;;;;;3.97;2.70;;;;;;;-145.69;97.55;72148.66;5073170;28;20267;-76
2022/07/17 01:59:33;;;;;;;8.00;2.50;;;;;;;-145.69;97.68;72148.66;5073398;28;20203;-76
2022/07/17 02:01:59;;;;;;;4.47;2.43;;;;;;;-145.69;96.22;72138.72;5073195;28;20203;-76
2022/07/17 02:04:26;;;;;;;3.37;2.30;;;;;;;-145.69;96.04;72138.72;5073308;28;20561;-76
2022/07/17 02:06:54;;;;;;;3.43;2.20;;;;;;;-145.69;94.76;72138.72;5069494;28;20195;-76
2022/07/17 02:09:20;;;;;;;3.53;2.37;;;;;;;-145.69;92.56;72118.81;5073380;28;20241;-76
2022/07/17 02:11:47;;;;;;;7.83;2.37;;;;;;;-145.69;92.93;72098.91;5073101;28;20226;-76
2022/07/17 02:14:15;;;;;;;3.13;2.20;;;;;;;-145.69;93.86;72114.81;5073111;28;20688;-76
2022/07/17 02:16:41;;;;;;;3.43;2.20;;;;;;;-145.69;95.80;72126.78;5073125;28;20660;-76
2022/07/17 02:19:07;;;;;;;6.17;2.27;;;;;;;-145.69;96.28;72114.81;5073000;28;20202;-76
2022/07/17 02:21:34;;;;;;;5.53;2.63;;;;;;;-145.69;94.46;72112.84;5072651;28;20198;-76
2022/07/17 02:24:00;;;;;;;5.70;2.60;;;;;;;-145.69;94.60;72104.88;5072914;28;20248;-76
2022/07/17 02:26:27;;;;;;;4.90;2.37;;;;;;;-145.69;96.53;72110.84;5072920;28;20680;-76
2022/07/17 02:28:54;;;;;;;4.67;2.50;;;;;;;-145.69;95.95;72116.81;5073123;28;20199;-76
2022/07/17 02:31:22;;;;;;;4.67;2.70;;;;;;;-145.69;97.22;72130.75;5072745;28;20227;-76
2022/07/17 02:33:48;;;;;;;4.27;2.53;;;;;;;-145.69;96.04;72126.78;5072897;28;20195;-76
2022/07/17 02:36:15;;;;;;;6.43;2.57;;;;;;;-145.69;96.91;72128.75;5072744;28;20210;-76
2022/07/17 02:38:41;;;;;;;6.57;2.77;;;;;;;-145.69;98.10;72122.78;5073093;28;20199;-76
2022/07/17 02:41:08;;;;;;;4.50;2.40;;;;;;;-145.69;100.00;72132.75;5072926;28;20195;-76
2022/07/17 02:43:35;;;;;;;2.80;2.50;;;;;;;-145.69;100.00;72132.75;5072970;28;20199;-77
2022/07/17 02:46:02;;;;;;;3.63;2.20;;;;;;;-145.69;100.00;72140.69;5072872;28;20202;-76
2022/07/17 02:48:30;;;;;;;4.37;2.73;;;;;;;-145.69;100.00;72144.69;5072648;28;20198;-76
2022/07/17 02:50:57;;;;;;;6.27;2.67;;;;;;;-145.69;100.00;72150.66;5072274;28;20253;-77
2022/07/17 02:53:23;;;;;;;6.47;2.70;;;;;;;-145.69;100.00;72162.59;5072933;28;20612;-76
2022/07/17 02:55:49;;;;;;;3.27;2.47;;;;;;;-145.69;100.00;72158.63;5072744;28;20202;-76
2022/07/17 02:58:16;;;;;;;6.53;2.90;;;;;;;-145.69;100.00;72152.66;5075046;28;20195;-77
2022/07/17 03:00:42;;;;;;;4.07;2.70;;;;;;;-145.69;100.00;72138.72;5076696;28;20222;-76
2022/07/17 03:03:09;;;;;;;3.97;2.80;;;;;;;-145.69;100.00;72142.69;5076627;28;20194;-76
2022/07/17 03:05:37;;;;;;;4.90;2.80;;;;;;;-145.69;100.00;72146.69;5076853;28;20205;-76
2022/07/17 03:08:03;;;;;;;3.83;2.87;;;;;;;-145.69;100.00;72160.59;5076495;28;20202;-77
2022/07/17 03:10:30;;;;;;;4.60;2.80;;;;;;;-145.69;100.00;72170.56;5076325;28;20226;-76
2022/07/17 03:12:57;;;;;;;5.80;2.73;;;;;;;-145.69;100.00;72172.53;5076531;28;20206;-76
2022/07/17 03:15:23;;;;;;;4.13;2.67;;;;;;;-145.69;100.00;72178.53;5076467;28;20211;-76
2022/07/17 03:17:50;;;;;;;3.63;2.63;;;;;;;-145.69;100.00;72188.47;5076337;28;20199;-76
2022/07/17 03:20:16;;;;;;;3.67;2.60;;;;;;;-145.69;100.00;72194.44;5076263;28;20221;-76
2022/07/17 03:22:44;;;;;;;6.93;2.97;;;;;;;-145.69;100.00;72198.41;5076187;28;20209;-77
2022/07/17 03:25:11;;;;;;;6.17;3.10;;;;;;;-145.69;100.00;72180.50;5075697;28;20604;-76
2022/07/17 03:27:38;;;;;;;3.60;2.70;;;;;;;-145.69;100.00;72166.56;5076251;28;20211;-76
2022/07/17 03:30:05;;;;;;;4.67;2.90;;;;;;;-145.69;100.00;72174.53;5076002;28;20228;-76
2022/07/17 03:32:32;;;;;;;4.27;2.60;;;;;;;-145.69;100.00;72170.56;5076063;28;20199;-77
2022/07/17 03:34:58;;;;;;;7.63;3.20;;;;;;;-145.69;100.00;72162.59;5076126;28;20207;-76
2022/07/17 03:37:25;;;;;;;5.23;3.10;;;;;;;-145.69;100.00;72178.53;5076157;28;20206;-76
2022/07/17 03:39:52;;;;;;;4.47;2.90;;;;;;;-145.69;100.00;72170.56;5076055;28;20199;-77
2022/07/17 03:42:19;;;;;;;4.97;3.10;;;;;;;-145.69;100.00;72158.63;5076023;28;20207;-77
2022/07/17 03:44:45;;;;;;;5.70;3.43;;;;;;;-145.69;100.00;72138.72;5075767;28;20199;-76
2022/07/17 03:47:12;;;;;;;10.27;2.80;;;;;;;-145.69;99.64;72130.75;5075780;28;20207;-76
2022/07/17 03:49:38;;;;;;;7.17;2.97;;;;;;;-145.69;100.00;72150.66;5075474;28;20226;-76
2022/07/17 03:52:05;;;;;;;6.03;3.07;;;;;;;-145.69;100.00;72160.59;5075789;28;20234;-77
2022/07/17 03:54:31;;;;;;;3.03;2.63;;;;;;;-145.69;100.00;72134.72;5075729;28;20210;-76
2022/07/17 03:56:59;;;;;;;8.17;2.93;;;;;;;-145.69;100.00;72114.81;5075355;28;20603;-76
2022/07/17 03:59:26;;;;;;;5.10;3.00;;;;;;;-145.69;100.00;72108.84;5075534;28;20672;-76
2022/07/17 04:01:53;;;;;;;4.13;3.10;;;;;;;-145.69;100.00;72118.81;5075343;28;20199;-76
2022/07/17 04:04:20;;;;;;;5.93;3.23;;;;;;;-145.69;100.00;72116.81;5075727;28;20280;-76
2022/07/17 04:06:46;;;;;;;3.97;2.77;;;;;;;-145.69;100.00;72116.81;5075580;28;20203;-76
2022/07/17 04:09:13;;;;;;;3.30;2.90;;;;;;;-145.69;100.00;72100.91;5071503;28;20203;-76
2022/07/17 04:11:39;;;;;;;5.10;3.03;;;;;;;-145.69;100.00;72106.88;5055246;28;20694;-76
2022/07/17 04:14:07;;;;;;;7.67;2.90;;;;;;;-145.69;100.00;72122.78;5055330;28;20203;-76
2022/07/17 04:16:33;;;;;;;4.65;3.22;;;;;;;-145.69;100.00;72122.78;5055062;28;20441;-75
2022/07/17 04:19:00;;;;;;;7.90;2.73;;;;;;;-145.69;100.00;72110.84;5055451;28;20597;-77
2022/07/17 04:21:26;;;;;;;5.57;3.00;;;;;;;-145.69;100.00;72090.94;5072752;28;20560;-76
2022/07/17 04:23:52;;;;;;;4.67;3.17;;;;;;;-145.69;100.00;72102.88;5075157;28;20195;-77
2022/07/17 04:26:19;;;;;;;4.77;3.13;;;;;;;-145.69;100.00;72104.88;5075093;28;20202;-76
2022/07/17 04:28:46;;;;;;;5.27;3.20;;;;;;;-145.69;100.00;72096.91;5075039;28;20202;-76
2022/07/17 04:31:14;;;;;;;3.23;2.70;;;;;;;-145.69;100.00;72102.88;5075069;28;20593;-77
2022/07/17 04:33:40;;;;;;;9.77;2.73;;;;;;;-145.69;98.46;72079.00;5075317;28;20771;-76
2022/07/17 04:36:07;;;;;;;5.77;3.10;;;;;;;-145.69;100.00;72075.03;5075024;28;20199;-76
2022/07/17 04:38:33;;;;;;;6.27;3.33;;;;;;;-145.69;100.00;72071.03;5075057;28;20213;-76
2022/07/17 04:40:59;;;;;;;4.33;3.27;;;;;;;-145.69;100.00;72067.06;5074915;28;20221;-77
2022/07/17 04:43:26;;;;;;;5.00;3.10;;;;;;;-145.69;100.00;72086.97;5074986;28;20202;-76
2022/07/17 04:45:52;;;;;;;7.90;2.97;;;;;;;-145.69;100.00;72090.94;5074967;28;20213;-77
2022/07/17 04:48:20;;;;;;;9.20;2.83;;;;;;;-145.69;100.00;72098.91;5074611;28;20531;-77
2022/07/17 04:50:47;;;;;;;5.40;3.03;;;;;;;-145.69;100.00;72102.88;5074140;28;20227;-76
2022/07/17 04:53:13;;;;;;;3.43;2.90;;;;;;;-145.69;100.00;72098.91;5074662;28;20272;-76
2022/07/17 04:55:39;;;;;;;4.47;2.80;;;;;;;-145.69;100.00;72094.94;5074449;28;20209;-77
2022/07/17 04:58:06;;;;;;;4.37;2.90;;;;;;;-145.69;100.00;72092.94;5074604;28;20210;-76
2022/07/17 05:00:32;;;;;;;7.07;3.10;;;;;;;-145.69;100.00;72075.03;5074613;28;20534;-76
2022/07/17 05:02:59;;;;;;;4.03;2.50;;;;;;;-145.69;100.00;72069.06;5074234;28;20199;-76
2022/07/17 05:05:27;;;;;;;4.67;2.53;;;;;;;-145.69;98.70;72051.16;5074450;28;20198;-77
2022/07/17 05:07:53;;;;;;;4.13;2.90;;;;;;;-145.69;97.18;72035.22;5074428;28;20276;-76
2022/07/17 05:10:19;;;;;;;4.20;2.80;;;;;;;-145.69;96.36;72019.31;5074083;28;20203;-76
2022/07/17 05:12:46;;;;;;;3.63;2.40;;;;;;;-145.69;95.05;72013.31;5074376;28;20234;-76
2022/07/17 05:15:12;;;;;;;4.30;2.60;;;;;;;-145.69;92.22;71989.44;5074428;28;20202;-76
2022/07/17 05:17:39;;;;;;;4.17;2.23;;;;;;;-145.69;91.65;71981.50;5074343;28;20201;-76
2022/07/17 05:20:07;;;;;;;3.77;2.17;;;;;;;-145.69;91.66;71977.50;5073110;28;20191;-76
2022/07/17 05:22:35;;;;;;;4.07;2.67;;;;;;;-145.69;94.13;71967.56;5074100;28;20202;-77
2022/07/17 05:25:02;;;;;;;9.90;2.70;;;;;;;-145.69;93.58;71957.59;5074062;28;20203;-77
2022/07/17 05:27:28;;;;;;;5.47;2.90;;;;;;;-145.69;95.55;71947.66;5074107;28;20207;-77
2022/07/17 05:29:55;;;;;;;3.53;2.70;;;;;;;-145.69;93.75;71931.72;5073850;28;20492;-77
2022/07/17 05:32:21;;;;;;;5.03;2.70;;;;;;;-145.69;92.85;71919.78;5073712;28;20262;-77
2022/07/17 05:34:48;;;;;;;8.30;2.80;;;;;;;-145.69;89.66;71903.88;5073596;28;20194;-77
2022/07/17 05:37:14;;;;;;;2.92;2.28;;;;;;;-145.69;89.75;71889.94;5073579;28;20650;-77
2022/07/17 05:39:42;;;;;;;3.57;2.43;;;;;;;-145.69;88.18;71872.03;5073933;28;20227;-77
2022/07/17 05:42:08;;;;;;;6.40;2.30;;;;;;;-145.69;86.14;71836.22;5073784;28;20210;-76
2022/07/17 05:44:35;;;;;;;4.53;2.58;;;;;;;-145.69;84.83;71796.41;5073677;28;20209;-77
2022/07/17 05:47:01;;;;;;;3.28;2.53;;;;;;;-145.69;81.66;71738.69;5073639;28;20571;-76
2022/07/17 05:49:28;;;;;;;6.43;1.90;;;;;;;-145.69;76.00;71637.19;5073149;28;20611;-76
2022/07/17 05:51:54;;;;;;;7.65;2.08;;;;;;;-145.69;73.84;71517.81;5073090;28;20230;-77
2022/07/17 05:54:21;;;;;;;5.32;2.03;;;;;;;-145.69;71.67;71489.94;5073623;28;20206;-77
2022/07/17 05:56:48;;;;;;;4.25;2.00;;;;;;;-145.69;68.99;71394.44;5073305;28;20205;-74
2022/07/17 05:59:15;;;;;;;5.40;1.80;;;;;;;-145.69;63.82;71302.91;5073434;28;20202;-77
2022/07/17 06:01:41;;;;;;;3.35;1.75;;;;;;;-145.69;58.08;71207.38;5065811;28;20199;-74
2022/07/17 06:04:08;;;;;;;3.05;1.63;;;;;;;-145.69;61.46;71215.34;5053342;28;20242;-74
2022/07/17 06:06:34;;;;;;;2.97;1.35;;;;;;;-145.69;60.26;71205.41;5053130;28;20199;-74
2022/07/17 06:09:01;;;;;;;2.60;1.70;;;;;;;-145.69;61.51;71265.09;5053092;28;20681;-75
2022/07/17 06:11:27;;;;;;;4.40;1.60;;;;;;;-145.69;59.89;71314.84;5053030;28;20273;-74
2022/07/17 06:13:55;;;;;;;3.33;1.85;;;;;;;-145.69;58.25;71269.06;5053067;28;20563;-76
2022/07/17 06:16:21;;;;;;;5.82;1.75;;;;;;;-145.69;58.39;71285.00;5053088;28;20203;-75
2022/07/17 06:18:48;;;;;;;3.08;1.60;;;;;;;-145.69;60.35;71207.38;5053039;28;20207;-76
2022/07/17 06:21:14;;;;;;;7.03;1.65;;;;;;;-145.69;57.46;71263.09;5070636;28;20665;-75
2022/07/17 06:23:41;;;;;;;4.47;1.60;;;;;;;-145.69;56.70;71271.06;5072965;28;20202;-74
2022/07/17 06:26:07;;;;;;;1.80;1.30;;;;;;;-145.69;60.92;71225.31;5073165;28;20198;-74
2022/07/17 06:28:34;;;;;;;2.38;1.50;;;;;;;-145.69;57.33;71249.19;5073131;28;20205;-75
2022/07/17 06:31:01;;;;;;;3.65;1.58;;;;;;;-145.69;58.45;71207.38;5072784;28;20198;-75
2022/07/17 06:33:28;;;;;;;3.22;1.60;;;;;;;-145.69;56.19;71177.53;5072821;28;20203;-75
2022/07/17 06:35:54;;;;;;;2.38;1.33;;;;;;;-145.69;55.40;71169.59;5072853;28;20245;-75
2022/07/17 06:38:21;;;;;;;2.83;1.40;;;;;;;-145.69;55.31;71149.69;5072776;28;20213;-75
2022/07/17 06:40:48;;;;;;;2.30;1.50;;;;;;;-145.69;56.34;71145.72;5072110;28;20908;-75
2022/07/17 06:43:14;;;;;;;4.43;1.40;;;;;;;-145.69;57.76;71099.94;5072964;28;20565;-75
2022/07/17 06:45:41;;;;;;;3.47;1.63;;;;;;;-145.69;52.65;71171.56;5072798;28;20203;-74
2022/07/17 06:48:09;;;;;;;4.20;1.85;;;;;;;-145.69;52.07;71167.59;5072446;28;20191;-75
2022/07/17 06:50:35;;;;;;;2.95;1.63;;;;;;;-145.69;52.54;71123.81;5072567;28;20309;-74
2022/07/17 06:53:02;;;;;;;2.47;1.60;;;;;;;-145.69;53.15;71117.84;5072768;28;20226;-75
2022/07/17 06:55:28;;;;;;;2.60;1.20;;;;;;;-145.69;53.18;71103.94;5072828;28;20206;-75
2022/07/17 06:57:55;;;;;;;6.53;1.60;;;;;;;-145.69;49.73;71111.88;5072751;28;20198;-77
2022/07/17 07:00:21;;;;;;;3.35;1.58;;;;;;;-145.69;49.84;71107.91;5072720;28;20199;-77
2022/07/17 07:02:47;;;;;;;3.67;1.40;;;;;;;-145.69;49.84;71095.97;5072531;28;20206;-77
2022/07/17 07:05:15;;;;;;;4.55;1.75;;;;;;;-145.69;49.78;71095.97;5072500;28;20293;-76
2022/07/17 07:07:42;;;;;;;4.35;1.80;;;;;;;-145.69;47.45;71101.94;5072680;28;20198;-77
2022/07/17 07:10:09;;;;;;;4.50;1.58;;;;;;;-145.69;47.60;71082.03;5072567;28;20206;-78
2022/07/17 07:12:36;;;;;;;3.85;1.70;;;;;;;-145.69;47.93;71056.16;5072536;28;20280;-77
2022/07/17 07:15:02;;;;;;;2.67;1.85;;;;;;;-145.69;47.67;71060.16;5072454;28;20202;-77
2022/07/17 07:17:31;;;;;;;3.58;1.73;;;;;;;-145.69;46.56;71064.13;5072132;28;20194;-77
2022/07/17 07:19:57;;;;;;;3.88;1.70;;;;;;;-145.69;47.07;71046.22;5072492;28;20206;-77
2022/07/17 07:22:25;;;;;;;2.42;1.65;;;;;;;-145.69;46.25;71036.28;5072512;28;20206;-77
2022/07/17 07:24:52;;;;;;;3.10;1.63;;;;;;;-145.69;46.78;71012.41;5072343;28;20668;-77
2022/07/17 07:27:18;;;;;;;6.13;1.67;;;;;;;-145.69;47.00;71026.31;5071976;28;20669;-77
2022/07/17 07:29:44;;;;;;;4.90;2.05;;;;;;;-145.69;48.74;71010.41;5072098;28;20206;-77
2022/07/17 07:32:11;;;;;;;3.08;1.65;;;;;;;-145.69;46.21;71012.41;5072478;28;20237;-78
2022/07/17 07:34:37;;;;;;;5.00;1.50;;;;;;;-145.69;45.59;71020.34;5072508;28;20211;-77
2022/07/17 07:37:04;;;;;;;3.92;1.50;;;;;;;-145.69;46.28;71000.47;5072413;28;20256;-77
2022/07/17 07:39:32;;;;;;;6.10;1.83;;;;;;;-145.69;42.60;71008.41;5072400;28;20203;-77
2022/07/17 07:41:59;;;;;;;5.72;1.45;;;;;;;-145.69;45.73;70980.56;5072200;28;20210;-78
2022/07/17 07:44:26;;;;;;;3.53;2.08;;;;;;;-145.69;49.68;70980.56;5074491;28;20289;-78
2022/07/17 07:46:52;;;;;;;3.95;1.90;;;;;;;-145.69;51.32;71020.34;5076065;28;20244;-77
2022/07/17 07:49:19;;;;;;;3.00;1.98;;;;;;;-145.69;51.20;71016.38;5075406;28;20226;-80
2022/07/17 07:51:45;;;;;;;5.35;2.28;;;;;;;-145.69;51.13;71026.31;5075654;28;20222;-77
2022/07/17 07:54:12;;;;;;;4.22;2.15;;;;;;;-145.69;52.32;71048.22;5075606;28;20198;-78
2022/07/17 07:56:40;;;;;;;9.55;1.90;;;;;;;-145.69;54.16;71048.22;5075596;28;20221;-79
2022/07/17 07:59:06;;;;;;;6.95;2.05;;;;;;;-145.69;52.27;71036.28;5075826;28;20215;-80
2022/07/17 08:01:33;;;;;;;5.22;2.05;;;;;;;-145.69;51.88;71042.25;5075190;28;20201;-76
2022/07/17 08:03:59;;;;;;;7.82;2.60;;;;;;;-145.69;55.40;71060.16;5072511;28;20218;-77
2022/07/17 08:06:26;;;;;;;3.05;1.80;;;;;;;-145.69;52.83;71044.22;5055530;28;20199;-78
2022/07/17 08:08:52;;;;;;;5.10;2.17;;;;;;;-145.69;51.69;71036.28;5055363;28;20286;-77
2022/07/17 08:11:19;;;;;;;3.55;1.90;;;;;;;-145.69;52.41;71024.34;5055227;28;20199;-77
2022/07/17 08:13:47;;;;;;;3.28;2.10;;;;;;;-145.69;50.22;71008.41;5055739;28;20223;-77
2022/07/17 08:16:13;;;;;;;9.18;1.80;;;;;;;-145.69;48.23;70990.50;5055277;28;20557;-77
2022/07/17 08:18:40;;;;;;;2.55;1.65;;;;;;;-145.69;47.51;70964.66;5066622;28;20657;-77
2022/07/17 08:21:06;;;;;;;2.60;1.67;;;;;;;-145.69;44.50;70936.78;5075316;28;20236;-78
2022/07/17 08:23:33;;;;;;;4.80;1.63;;;;;;;-145.69;47.03;70904.97;5075122;28;20657;-77
2022/07/17 08:25:59;;;;;;;4.03;1.90;;;;;;;-145.69;45.19;70891.03;5074970;28;20207;-77
2022/07/17 08:28:26;;;;;;;3.78;1.70;;;;;;;-145.69;45.16;70881.09;5075285;28;20566;-77
2022/07/17 08:30:54;;;;;;;8.35;1.60;;;;;;;-145.69;44.70;70857.22;5075062;28;20207;-77
2022/07/17 08:33:20;;;;;;;3.10;1.60;;;;;;;-145.69;47.53;70863.19;5075058;28;20230;-76
2022/07/17 08:35:47;;;;;;;3.70;1.92;;;;;;;-145.69;44.37;70881.09;5075037;28;20252;-81
2022/07/17 08:38:13;;;;;;;2.97;2.00;;;;;;;-145.69;46.80;70873.13;5075127;28;20206;-77
2022/07/17 08:40:43;;;;;;;3.17;1.67;;;;;;;-145.69;47.73;70885.06;5074769;28;20205;-78
2022/07/17 08:43:10;;;;;;;4.13;1.70;;;;;;;-145.69;44.28;70875.13;5075232;28;20241;-77
2022/07/17 08:45:43;;;;;;;3.78;1.85;;;;;;;-145.69;46.79;70867.16;5074783;28;20294;-79
2022/07/17 08:48:15;;;;;;;3.75;1.75;;;;;;;-145.69;46.96;70881.09;5074429;28;20195;-78
2022/07/17 08:50:43;;;;;;;5.38;1.70;;;;;;;-145.69;46.38;70885.06;5074456;28;20235;-79
2022/07/17 08:53:10;;;;;;;2.40;1.70;;;;;;;-145.69;46.84;70877.09;5074448;28;20258;-79
2022/07/17 08:55:37;;;;;;;3.00;1.63;;;;;;;-145.69;47.44;70883.06;5073489;28;20289;-77
2022/07/17 08:58:04;;;;;;;6.13;1.98;;;;;;;-145.69;45.28;70897.00;5074079;28;20290;-78
2022/07/17 09:00:31;;;;;;;4.43;1.70;;;;;;;-145.69;45.37;70922.88;5074133;28;20243;-77
2022/07/17 09:03:00;;;;;;;5.85;1.70;;;;;;;-145.69;46.13;70908.94;5074398;28;20199;-77
2022/07/17 09:05:30;;;;;;;3.05;1.75;;;;;;;-145.69;45.08;70914.91;5074380;28;20594;-77
2022/07/17 09:07:57;;;;;;;4.15;2.10;;;;;;;-145.69;47.32;70891.03;5074605;28;20198;-77
2022/07/17 09:10:35;;;;;;;5.25;2.00;;;;;;;-145.69;46.55;70895.00;5074399;28;20199;-77
2022/07/17 09:13:02;;;;;;;2.25;1.70;;;;;;;-145.69;45.35;70893.03;5074209;28;20562;-77
2022/07/17 09:15:29;;;;;;;4.43;1.65;;;;;;;-145.69;45.93;70879.09;5074147;28;20199;-76
2022/07/17 09:17:57;;;;;;;3.53;1.70;;;;;;;-145.69;47.17;70904.97;5073719;28;20257;-77
2022/07/17 09:20:39;;;;;;;4.95;1.83;;;;;;;-145.69;46.71;70881.09;5073981;28;20257;-77
2022/07/17 09:23:06;;;;;;;3.50;1.52;;;;;;;-145.69;45.43;70869.16;5074068;28;20205;-77
2022/07/17 09:25:36;;;;;;;3.05;1.60;;;;;;;-145.69;45.72;70865.16;5073999;28;20539;-78
2022/07/17 09:28:07;;;;;;;5.68;1.77;;;;;;;-145.69;45.28;70857.22;5073957;28;20297;-79
2022/07/17 09:30:40;;;;;;;5.10;2.00;;;;;;;-145.69;44.92;70859.19;5073819;28;20198;-77
2022/07/17 09:33:13;;;;;;;2.88;1.90;;;;;;;-145.69;43.81;70863.19;5073672;28;20226;-80
2022/07/17 09:35:47;;;;;;;4.35;1.63;;;;;;;-145.69;42.49;70853.22;5072881;28;20433;-78
2022/07/17 09:38:25;;;;;;;5.32;1.60;;;;;;;-145.69;43.06;70861.19;5073792;28;20547;-80
2022/07/17 09:41:11;;;;;;;2.10;1.40;;;;;;;-145.69;42.97;70855.22;5073601;28;20724;-80
2022/07/17 09:43:47;;;;;;;2.63;1.90;;;;;;;-145.69;43.31;70877.09;5073852;28;20281;-76
2022/07/17 09:46:16;;;;;;;4.13;1.70;;;;;;;-145.69;44.75;70877.09;5073468;28;20202;-78
2022/07/17 09:48:47;;;;;;;3.22;1.67;;;;;;;-145.69;43.30;70881.09;5072836;28;20195;-78
2022/07/17 09:51:18;;;;;;;3.50;1.77;;;;;;;-145.69;43.61;70881.09;5073485;28;20203;-77
2022/07/17 09:53:49;;;;;;;3.78;1.85;;;;;;;-145.69;45.01;70879.09;5073260;28;20223;-77
2022/07/17 09:56:19;;;;;;;3.00;1.85;;;;;;;-145.69;44.78;70857.22;5073543;28;20205;-78
2022/07/17 09:58:49;;;;;;;2.72;1.80;;;;;;;-145.69;45.68;70869.16;5073672;28;20195;-77
2022/07/17 10:01:16;;;;;;;2.15;1.75;;;;;;;-145.69;46.03;70851.25;5073014;28;20201;-77
2022/07/17 10:03:44;;;;;;;4.32;1.83;;;;;;;-145.69;43.94;70857.22;5070949;28;20252;-79
2022/07/17 10:06:11;;;;;;;3.53;1.70;;;;;;;-145.69;43.50;70825.38;5072563;28;20210;-77
2022/07/17 10:08:40;;;;;;;4.57;1.50;;;;;;;-145.69;45.81;70817.41;5072635;28;20199;-81
2022/07/17 10:11:07;;;;;;;3.70;1.90;;;;;;;-145.69;43.68;70817.41;5064746;28;20203;-79
2022/07/17 10:13:33;;;;;;;4.95;2.00;;;;;;;-145.69;46.38;70829.34;5053625;28;20227;-77
2022/07/17 10:16:00;;;;;;;5.80;2.10;;;;;;;-145.69;44.14;70813.44;5052962;28;20574;-77
2022/07/17 10:18:36;;;;;;;2.78;1.52;;;;;;;-145.69;44.45;70795.53;5052893;28;20202;-78
2022/07/17 10:21:14;;;;;;;5.43;1.95;;;;;;;-145.69;43.51;70773.66;5053060;28;20207;-79
2022/07/17 10:23:43;;;;;;;4.18;1.90;;;;;;;-145.69;43.49;70773.66;5053076;28;20227;-77
2022/07/17 10:26:10;;;;;;;2.25;1.60;;;;;;;-145.69;43.56;70745.78;5052688;28;20203;-78
2022/07/17 10:28:43;;;;;;;2.92;1.80;;;;;;;-145.69;43.81;70741.81;5052949;28;20227;-78
2022/07/17 10:31:10;;;;;;;3.92;1.58;;;;;;;-145.69;44.25;70737.84;5052669;28;20207;-76
2022/07/17 10:33:37;;;;;;;5.57;1.67;;;;;;;-145.69;42.62;70741.81;5052810;28;20253;-79
2022/07/17 10:36:04;;;;;;;3.38;1.50;;;;;;;-145.69;42.64;70753.75;5052709;28;20199;-76
2022/07/17 10:38:43;;;;;;;3.58;1.60;;;;;;;-145.69;42.45;70747.78;5052861;28;20566;-78
2022/07/17 10:41:09;;;;;;;2.05;1.45;;;;;;;-145.69;41.84;70767.69;5055534;28;20199;-76
2022/07/17 10:43:44;;;;;;;4.82;1.80;;;;;;;-145.69;42.72;70745.78;5072425;28;20592;-77
2022/07/17 10:46:10;;;;;;;4.85;1.65;;;;;;;-145.69;42.26;70713.97;5072695;28;20201;-77
2022/07/17 10:48:40;;;;;;;3.30;1.77;;;;;;;-145.69;41.32;70708.00;5072617;28;20206;-78
2022/07/17 10:51:07;;;;;;;3.40;1.85;;;;;;;-145.69;41.77;70702.03;5072863;28;20203;-78
2022/07/17 10:53:35;;;;;;;4.57;1.48;;;;;;;-145.69;41.82;70708.00;5072575;28;20233;-78
2022/07/17 10:56:05;;;;;;;2.42;1.65;;;;;;;-145.69;43.72;70684.13;5072629;28;20198;-78
2022/07/17 10:58:34;;;;;;;3.75;1.65;;;;;;;-145.69;42.49;70686.09;5072736;28;20209;-76
2022/07/17 11:01:04;;;;;;;2.95;1.85;;;;;;;-145.69;43.48;70674.16;5072728;28;20238;-77
2022/07/17 11:03:31;;;;;;;1.85;1.60;;;;;;;-145.69;41.59;70668.19;5072621;28;20210;-76
2022/07/17 11:06:12;;;;;;;2.65;1.63;;;;;;;-145.69;41.75;70674.16;5072659;28;20210;-77
2022/07/17 11:08:46;;;;;;;3.72;1.77;;;;;;;-145.69;40.45;70674.16;5072693;28;20213;-76
2022/07/17 11:11:15;;;;;;;6.13;1.42;;;;;;;-145.69;41.85;70650.28;5072293;28;20244;-77
2022/07/17 11:13:44;;;;;;;2.80;1.55;;;;;;;-145.69;41.53;70622.44;5072527;28;20227;-74
2022/07/17 11:16:11;;;;;;;5.97;1.60;;;;;;;-145.69;41.86;70594.59;5072323;28;20202;-75